sensor_id;sensor_type;location;lat;lon;timestamp;P1;durP1;ratioP1;P2;durP2;ratioP2
7515;SDS011;3799;47.184;8.538;2023-05-07T00:01:07;2.45;;;0.82;;
7515;SDS011;3799;47.184;8.538;2023-05-07T00:03:35;3.47;;;0.60;;
7515;SDS011;3799;47.184;8.538;2023-05-07T00:06:03;2.60;;;0.40;;
7515;SDS011;3799;47.184;8.538;2023-05-07T00:08:31;1.27;;;0.70;;
7515;SDS011;3799;47.184;8.538;2023-05-07T00:10:58;1.70;;;0.57;;
7515;SDS011;3799;47.184;8.538;2023-05-07T00:13:28;1.50;;;0.32;;
7515;SDS011;3799;47.184;8.538;2023-05-07T00:16:02;2.53;;;0.55;;
7515;SDS011;3799;47.184;8.538;2023-05-07T00:18:30;1.48;;;0.60;;
7515;SDS011;3799;47.184;8.538;2023-05-07T00:20:57;1.63;;;0.68;;
7515;SDS011;3799;47.184;8.538;2023-05-07T00:23:24;1.92;;;0.60;;
7515;SDS011;3799;47.184;8.538;2023-05-07T00:25:51;1.70;;;0.65;;
7515;SDS011;3799;47.184;8.538;2023-05-07T00:28:19;1.80;;;0.68;;
7515;SDS011;3799;47.184;8.538;2023-05-07T00:30:46;3.50;;;0.80;;
7515;SDS011;3799;47.184;8.538;2023-05-07T00:33:14;3.33;;;0.65;;
7515;SDS011;3799;47.184;8.538;2023-05-07T00:35:42;1.27;;;0.40;;
7515;SDS011;3799;47.184;8.538;2023-05-07T00:38:09;3.28;;;0.50;;
7515;SDS011;3799;47.184;8.538;2023-05-07T00:40:36;4.25;;;0.73;;
7515;SDS011;3799;47.184;8.538;2023-05-07T00:43:04;1.58;;;0.75;;
7515;SDS011;3799;47.184;8.538;2023-05-07T00:45:31;2.63;;;0.70;;
7515;SDS011;3799;47.184;8.538;2023-05-07T00:47:59;3.08;;;0.50;;
7515;SDS011;3799;47.184;8.538;2023-05-07T00:50:28;1.08;;;0.50;;
7515;SDS011;3799;47.184;8.538;2023-05-07T00:52:56;2.10;;;0.70;;
7515;SDS011;3799;47.184;8.538;2023-05-07T00:55:25;0.75;;;0.30;;
7515;SDS011;3799;47.184;8.538;2023-05-07T00:57:53;1.58;;;0.40;;
7515;SDS011;3799;47.184;8.538;2023-05-07T01:00:20;2.60;;;0.80;;
7515;SDS011;3799;47.184;8.538;2023-05-07T01:02:47;1.85;;;0.30;;
7515;SDS011;3799;47.184;8.538;2023-05-07T01:05:15;1.50;;;0.77;;
7515;SDS011;3799;47.184;8.538;2023-05-07T01:07:45;1.85;;;0.80;;
7515;SDS011;3799;47.184;8.538;2023-05-07T01:10:14;2.55;;;0.50;;
7515;SDS011;3799;47.184;8.538;2023-05-07T01:12:42;4.57;;;0.90;;
7515;SDS011;3799;47.184;8.538;2023-05-07T01:15:11;2.35;;;0.70;;
7515;SDS011;3799;47.184;8.538;2023-05-07T01:17:39;1.27;;;0.52;;
7515;SDS011;3799;47.184;8.538;2023-05-07T01:20:08;1.88;;;0.60;;
7515;SDS011;3799;47.184;8.538;2023-05-07T01:22:38;1.27;;;0.50;;
7515;SDS011;3799;47.184;8.538;2023-05-07T01:25:06;1.75;;;0.70;;
7515;SDS011;3799;47.184;8.538;2023-05-07T01:27:36;1.73;;;0.70;;
7515;SDS011;3799;47.184;8.538;2023-05-07T01:30:04;3.65;;;0.68;;
7515;SDS011;3799;47.184;8.538;2023-05-07T01:32:33;5.38;;;0.98;;
7515;SDS011;3799;47.184;8.538;2023-05-07T01:35:27;2.42;;;0.70;;
7515;SDS011;3799;47.184;8.538;2023-05-07T01:37:57;3.03;;;0.73;;
7515;SDS011;3799;47.184;8.538;2023-05-07T01:40:24;4.38;;;0.90;;
7515;SDS011;3799;47.184;8.538;2023-05-07T01:42:52;2.05;;;0.55;;
7515;SDS011;3799;47.184;8.538;2023-05-07T01:45:21;1.98;;;0.45;;
7515;SDS011;3799;47.184;8.538;2023-05-07T01:47:49;2.30;;;0.95;;
7515;SDS011;3799;47.184;8.538;2023-05-07T01:50:17;1.73;;;0.65;;
7515;SDS011;3799;47.184;8.538;2023-05-07T01:52:45;1.58;;;0.90;;
7515;SDS011;3799;47.184;8.538;2023-05-07T01:55:13;1.33;;;0.50;;
7515;SDS011;3799;47.184;8.538;2023-05-07T01:57:40;1.33;;;0.60;;
7515;SDS011;3799;47.184;8.538;2023-05-07T02:00:08;1.30;;;0.55;;
7515;SDS011;3799;47.184;8.538;2023-05-07T02:02:36;2.28;;;0.80;;
7515;SDS011;3799;47.184;8.538;2023-05-07T02:05:05;1.42;;;0.60;;
7515;SDS011;3799;47.184;8.538;2023-05-07T02:07:32;1.73;;;0.35;;
7515;SDS011;3799;47.184;8.538;2023-05-07T02:10:00;1.10;;;0.50;;
7515;SDS011;3799;47.184;8.538;2023-05-07T02:12:27;2.08;;;0.93;;
7515;SDS011;3799;47.184;8.538;2023-05-07T02:14:54;1.75;;;0.80;;
7515;SDS011;3799;47.184;8.538;2023-05-07T02:17:22;3.00;;;1.00;;
7515;SDS011;3799;47.184;8.538;2023-05-07T02:19:49;0.80;;;0.50;;
7515;SDS011;3799;47.184;8.538;2023-05-07T02:22:16;2.30;;;1.27;;
7515;SDS011;3799;47.184;8.538;2023-05-07T02:24:44;1.10;;;0.47;;
7515;SDS011;3799;47.184;8.538;2023-05-07T02:27:11;2.15;;;0.60;;
7515;SDS011;3799;47.184;8.538;2023-05-07T02:29:38;1.20;;;0.50;;
7515;SDS011;3799;47.184;8.538;2023-05-07T02:32:06;1.58;;;0.60;;
7515;SDS011;3799;47.184;8.538;2023-05-07T02:34:33;1.90;;;0.50;;
7515;SDS011;3799;47.184;8.538;2023-05-07T02:37:01;1.73;;;0.57;;
7515;SDS011;3799;47.184;8.538;2023-05-07T02:39:28;2.45;;;0.85;;
7515;SDS011;3799;47.184;8.538;2023-05-07T02:41:56;3.73;;;0.70;;
7515;SDS011;3799;47.184;8.538;2023-05-07T02:44:23;2.60;;;0.65;;
7515;SDS011;3799;47.184;8.538;2023-05-07T02:46:50;2.83;;;0.70;;
7515;SDS011;3799;47.184;8.538;2023-05-07T02:49:17;3.03;;;0.60;;
7515;SDS011;3799;47.184;8.538;2023-05-07T02:51:44;1.88;;;0.65;;
7515;SDS011;3799;47.184;8.538;2023-05-07T02:54:12;1.25;;;0.65;;
7515;SDS011;3799;47.184;8.538;2023-05-07T02:56:39;1.70;;;0.63;;
7515;SDS011;3799;47.184;8.538;2023-05-07T02:59:06;1.42;;;0.68;;
7515;SDS011;3799;47.184;8.538;2023-05-07T03:01:34;2.60;;;0.77;;
7515;SDS011;3799;47.184;8.538;2023-05-07T03:04:01;1.35;;;0.55;;
7515;SDS011;3799;47.184;8.538;2023-05-07T03:06:29;1.35;;;0.70;;
7515;SDS011;3799;47.184;8.538;2023-05-07T03:08:58;1.38;;;0.50;;
7515;SDS011;3799;47.184;8.538;2023-05-07T03:11:26;2.17;;;0.60;;
7515;SDS011;3799;47.184;8.538;2023-05-07T03:13:53;1.63;;;0.47;;
7515;SDS011;3799;47.184;8.538;2023-05-07T03:16:20;1.58;;;0.50;;
7515;SDS011;3799;47.184;8.538;2023-05-07T03:18:48;2.83;;;1.00;;
7515;SDS011;3799;47.184;8.538;2023-05-07T03:21:15;2.22;;;0.63;;
7515;SDS011;3799;47.184;8.538;2023-05-07T03:23:43;2.60;;;0.77;;
7515;SDS011;3799;47.184;8.538;2023-05-07T03:26:10;3.17;;;0.88;;
7515;SDS011;3799;47.184;8.538;2023-05-07T03:28:38;2.33;;;0.73;;
7515;SDS011;3799;47.184;8.538;2023-05-07T03:31:05;3.03;;;1.00;;
7515;SDS011;3799;47.184;8.538;2023-05-07T03:33:33;1.77;;;0.70;;
7515;SDS011;3799;47.184;8.538;2023-05-07T03:36:01;3.85;;;1.13;;
7515;SDS011;3799;47.184;8.538;2023-05-07T03:38:29;2.00;;;0.77;;
7515;SDS011;3799;47.184;8.538;2023-05-07T03:40:56;2.17;;;0.98;;
7515;SDS011;3799;47.184;8.538;2023-05-07T03:43:23;2.90;;;0.63;;
7515;SDS011;3799;47.184;8.538;2023-05-07T03:45:53;2.42;;;0.95;;
7515;SDS011;3799;47.184;8.538;2023-05-07T03:48:21;1.73;;;0.80;;
7515;SDS011;3799;47.184;8.538;2023-05-07T03:50:48;2.92;;;0.85;;
7515;SDS011;3799;47.184;8.538;2023-05-07T03:53:16;1.77;;;0.88;;
7515;SDS011;3799;47.184;8.538;2023-05-07T03:55:43;2.55;;;0.85;;
7515;SDS011;3799;47.184;8.538;2023-05-07T03:58:11;1.33;;;0.65;;
7515;SDS011;3799;47.184;8.538;2023-05-07T04:00:38;1.67;;;0.68;;
7515;SDS011;3799;47.184;8.538;2023-05-07T04:03:07;3.05;;;0.77;;
7515;SDS011;3799;47.184;8.538;2023-05-07T04:05:34;2.08;;;0.80;;
7515;SDS011;3799;47.184;8.538;2023-05-07T04:08:01;1.60;;;0.70;;
7515;SDS011;3799;47.184;8.538;2023-05-07T04:10:29;2.85;;;0.95;;
7515;SDS011;3799;47.184;8.538;2023-05-07T04:12:56;1.42;;;0.77;;
7515;SDS011;3799;47.184;8.538;2023-05-07T04:15:25;1.83;;;0.63;;
7515;SDS011;3799;47.184;8.538;2023-05-07T04:17:54;3.55;;;1.00;;
7515;SDS011;3799;47.184;8.538;2023-05-07T04:20:21;2.28;;;0.90;;
7515;SDS011;3799;47.184;8.538;2023-05-07T04:22:49;1.50;;;0.75;;
7515;SDS011;3799;47.184;8.538;2023-05-07T04:25:16;1.40;;;0.50;;
7515;SDS011;3799;47.184;8.538;2023-05-07T04:27:43;3.10;;;0.98;;
7515;SDS011;3799;47.184;8.538;2023-05-07T04:30:11;3.47;;;0.80;;
7515;SDS011;3799;47.184;8.538;2023-05-07T04:32:40;1.85;;;0.80;;
7515;SDS011;3799;47.184;8.538;2023-05-07T04:35:14;1.67;;;0.50;;
7515;SDS011;3799;47.184;8.538;2023-05-07T04:37:42;1.25;;;0.68;;
7515;SDS011;3799;47.184;8.538;2023-05-07T04:40:10;1.35;;;0.40;;
7515;SDS011;3799;47.184;8.538;2023-05-07T04:42:37;4.22;;;0.80;;
7515;SDS011;3799;47.184;8.538;2023-05-07T04:45:05;1.75;;;0.60;;
7515;SDS011;3799;47.184;8.538;2023-05-07T04:47:32;1.90;;;0.88;;
7515;SDS011;3799;47.184;8.538;2023-05-07T04:49:59;1.58;;;0.57;;
7515;SDS011;3799;47.184;8.538;2023-05-07T04:52:27;1.95;;;0.80;;
7515;SDS011;3799;47.184;8.538;2023-05-07T04:54:54;2.72;;;0.80;;
7515;SDS011;3799;47.184;8.538;2023-05-07T04:57:21;2.67;;;0.68;;
7515;SDS011;3799;47.184;8.538;2023-05-07T04:59:52;2.13;;;0.60;;
7515;SDS011;3799;47.184;8.538;2023-05-07T05:05:06;2.00;;;1.05;;
7515;SDS011;3799;47.184;8.538;2023-05-07T05:08:00;1.52;;;0.60;;
7515;SDS011;3799;47.184;8.538;2023-05-07T05:10:56;3.05;;;1.10;;
7515;SDS011;3799;47.184;8.538;2023-05-07T05:13:59;2.78;;;1.00;;
7515;SDS011;3799;47.184;8.538;2023-05-07T05:16:47;2.15;;;0.77;;
7515;SDS011;3799;47.184;8.538;2023-05-07T05:19:34;2.33;;;0.50;;
7515;SDS011;3799;47.184;8.538;2023-05-07T05:22:21;3.25;;;0.77;;
7515;SDS011;3799;47.184;8.538;2023-05-07T05:25:09;2.00;;;0.65;;
7515;SDS011;3799;47.184;8.538;2023-05-07T05:27:56;1.30;;;0.57;;
7515;SDS011;3799;47.184;8.538;2023-05-07T05:30:43;2.10;;;0.88;;
7515;SDS011;3799;47.184;8.538;2023-05-07T05:33:31;2.10;;;0.40;;
7515;SDS011;3799;47.184;8.538;2023-05-07T05:36:18;2.17;;;0.80;;
7515;SDS011;3799;47.184;8.538;2023-05-07T05:39:05;4.20;;;1.45;;
7515;SDS011;3799;47.184;8.538;2023-05-07T05:41:52;2.85;;;1.65;;
7515;SDS011;3799;47.184;8.538;2023-05-07T05:44:39;3.85;;;1.70;;
7515;SDS011;3799;47.184;8.538;2023-05-07T05:47:27;3.55;;;1.88;;
7515;SDS011;3799;47.184;8.538;2023-05-07T05:50:14;5.07;;;1.58;;
7515;SDS011;3799;47.184;8.538;2023-05-07T05:53:01;2.38;;;1.10;;
7515;SDS011;3799;47.184;8.538;2023-05-07T05:55:49;2.80;;;1.63;;
7515;SDS011;3799;47.184;8.538;2023-05-07T05:58:36;4.55;;;1.60;;
7515;SDS011;3799;47.184;8.538;2023-05-07T06:01:24;3.88;;;1.60;;
7515;SDS011;3799;47.184;8.538;2023-05-07T06:04:11;5.40;;;1.73;;
7515;SDS011;3799;47.184;8.538;2023-05-07T06:06:58;2.70;;;1.85;;
7515;SDS011;3799;47.184;8.538;2023-05-07T06:09:46;2.83;;;1.92;;
7515;SDS011;3799;47.184;8.538;2023-05-07T06:12:33;4.55;;;2.05;;
7515;SDS011;3799;47.184;8.538;2023-05-07T06:15:20;4.25;;;1.65;;
7515;SDS011;3799;47.184;8.538;2023-05-07T06:18:08;3.22;;;1.77;;
7515;SDS011;3799;47.184;8.538;2023-05-07T06:20:55;3.42;;;2.53;;
7515;SDS011;3799;47.184;8.538;2023-05-07T06:23:45;6.82;;;2.50;;
7515;SDS011;3799;47.184;8.538;2023-05-07T06:26:33;3.47;;;1.83;;
7515;SDS011;3799;47.184;8.538;2023-05-07T06:29:20;3.65;;;1.80;;
7515;SDS011;3799;47.184;8.538;2023-05-07T06:32:11;5.60;;;1.58;;
7515;SDS011;3799;47.184;8.538;2023-05-07T06:34:59;4.20;;;1.80;;
7515;SDS011;3799;47.184;8.538;2023-05-07T06:37:47;2.78;;;1.60;;
7515;SDS011;3799;47.184;8.538;2023-05-07T06:40:34;3.40;;;2.45;;
7515;SDS011;3799;47.184;8.538;2023-05-07T06:43:21;4.60;;;2.00;;
7515;SDS011;3799;47.184;8.538;2023-05-07T06:46:08;4.93;;;1.90;;
7515;SDS011;3799;47.184;8.538;2023-05-07T06:48:56;3.17;;;1.42;;
7515;SDS011;3799;47.184;8.538;2023-05-07T06:51:43;2.63;;;1.67;;
7515;SDS011;3799;47.184;8.538;2023-05-07T06:54:30;4.35;;;1.33;;
7515;SDS011;3799;47.184;8.538;2023-05-07T06:57:18;2.15;;;0.77;;
7515;SDS011;3799;47.184;8.538;2023-05-07T07:00:05;3.67;;;0.90;;
7515;SDS011;3799;47.184;8.538;2023-05-07T07:02:56;2.65;;;1.00;;
7515;SDS011;3799;47.184;8.538;2023-05-07T07:05:43;2.28;;;0.95;;
7515;SDS011;3799;47.184;8.538;2023-05-07T07:08:31;2.30;;;1.05;;
7515;SDS011;3799;47.184;8.538;2023-05-07T07:11:18;3.58;;;1.77;;
7515;SDS011;3799;47.184;8.538;2023-05-07T07:14:05;4.25;;;1.90;;
7515;SDS011;3799;47.184;8.538;2023-05-07T07:16:53;2.80;;;1.90;;
7515;SDS011;3799;47.184;8.538;2023-05-07T07:19:40;2.60;;;1.40;;
7515;SDS011;3799;47.184;8.538;2023-05-07T07:22:27;3.47;;;1.58;;
7515;SDS011;3799;47.184;8.538;2023-05-07T07:25:15;2.45;;;1.55;;
7515;SDS011;3799;47.184;8.538;2023-05-07T07:28:02;3.28;;;1.50;;
7515;SDS011;3799;47.184;8.538;2023-05-07T07:30:49;3.53;;;1.60;;
7515;SDS011;3799;47.184;8.538;2023-05-07T07:33:37;3.35;;;1.27;;
7515;SDS011;3799;47.184;8.538;2023-05-07T07:36:25;3.67;;;1.33;;
7515;SDS011;3799;47.184;8.538;2023-05-07T07:39:31;5.55;;;1.73;;
7515;SDS011;3799;47.184;8.538;2023-05-07T07:42:18;3.83;;;1.48;;
7515;SDS011;3799;47.184;8.538;2023-05-07T07:45:06;3.70;;;1.02;;
7515;SDS011;3799;47.184;8.538;2023-05-07T07:47:54;3.83;;;1.40;;
7515;SDS011;3799;47.184;8.538;2023-05-07T07:50:41;2.97;;;1.40;;
7515;SDS011;3799;47.184;8.538;2023-05-07T07:53:31;4.50;;;1.60;;
7515;SDS011;3799;47.184;8.538;2023-05-07T07:56:18;5.05;;;2.03;;
7515;SDS011;3799;47.184;8.538;2023-05-07T07:59:06;3.08;;;1.52;;
7515;SDS011;3799;47.184;8.538;2023-05-07T08:01:53;2.83;;;1.10;;
7515;SDS011;3799;47.184;8.538;2023-05-07T08:04:43;2.70;;;1.23;;
7515;SDS011;3799;47.184;8.538;2023-05-07T08:07:31;4.10;;;1.02;;
7515;SDS011;3799;47.184;8.538;2023-05-07T08:10:18;3.05;;;1.30;;
7515;SDS011;3799;47.184;8.538;2023-05-07T08:13:08;3.67;;;0.90;;
7515;SDS011;3799;47.184;8.538;2023-05-07T08:15:55;3.08;;;1.15;;
7515;SDS011;3799;47.184;8.538;2023-05-07T08:18:44;2.78;;;0.85;;
7515;SDS011;3799;47.184;8.538;2023-05-07T08:21:31;2.00;;;0.80;;
7515;SDS011;3799;47.184;8.538;2023-05-07T08:24:20;4.38;;;1.48;;
7515;SDS011;3799;47.184;8.538;2023-05-07T08:27:07;3.88;;;1.40;;
7515;SDS011;3799;47.184;8.538;2023-05-07T08:29:55;4.20;;;1.30;;
7515;SDS011;3799;47.184;8.538;2023-05-07T08:32:42;3.75;;;1.10;;
7515;SDS011;3799;47.184;8.538;2023-05-07T08:35:30;4.53;;;1.02;;
7515;SDS011;3799;47.184;8.538;2023-05-07T08:38:17;1.40;;;0.65;;
7515;SDS011;3799;47.184;8.538;2023-05-07T08:41:04;2.88;;;1.13;;
7515;SDS011;3799;47.184;8.538;2023-05-07T08:43:54;3.30;;;1.20;;
7515;SDS011;3799;47.184;8.538;2023-05-07T08:46:46;2.97;;;1.40;;
7515;SDS011;3799;47.184;8.538;2023-05-07T08:49:36;9.00;;;1.50;;
7515;SDS011;3799;47.184;8.538;2023-05-07T08:54:59;2.63;;;1.52;;
7515;SDS011;3799;47.184;8.538;2023-05-07T08:57:31;4.95;;;1.63;;
7515;SDS011;3799;47.184;8.538;2023-05-07T08:59:59;2.80;;;0.90;;
7515;SDS011;3799;47.184;8.538;2023-05-07T09:02:26;3.33;;;1.20;;
7515;SDS011;3799;47.184;8.538;2023-05-07T09:04:54;4.45;;;1.00;;
7515;SDS011;3799;47.184;8.538;2023-05-07T09:07:21;2.83;;;0.95;;
7515;SDS011;3799;47.184;8.538;2023-05-07T09:09:49;2.58;;;1.10;;
7515;SDS011;3799;47.184;8.538;2023-05-07T09:12:17;2.40;;;1.27;;
7515;SDS011;3799;47.184;8.538;2023-05-07T09:14:45;3.45;;;1.23;;
7515;SDS011;3799;47.184;8.538;2023-05-07T09:17:15;4.22;;;0.93;;
7515;SDS011;3799;47.184;8.538;2023-05-07T09:19:43;3.65;;;1.60;;
7515;SDS011;3799;47.184;8.538;2023-05-07T09:22:12;3.95;;;1.05;;
7515;SDS011;3799;47.184;8.538;2023-05-07T09:24:39;3.20;;;1.33;;
7515;SDS011;3799;47.184;8.538;2023-05-07T09:27:07;2.50;;;1.02;;
7515;SDS011;3799;47.184;8.538;2023-05-07T09:29:36;3.28;;;1.27;;
7515;SDS011;3799;47.184;8.538;2023-05-07T09:32:07;3.08;;;1.50;;
7515;SDS011;3799;47.184;8.538;2023-05-07T09:34:35;4.28;;;1.40;;
7515;SDS011;3799;47.184;8.538;2023-05-07T09:37:04;3.28;;;1.27;;
7515;SDS011;3799;47.184;8.538;2023-05-07T09:39:39;1.83;;;1.10;;
7515;SDS011;3799;47.184;8.538;2023-05-07T09:42:07;2.42;;;1.27;;
7515;SDS011;3799;47.184;8.538;2023-05-07T09:44:35;1.85;;;1.10;;
7515;SDS011;3799;47.184;8.538;2023-05-07T09:47:08;3.40;;;1.20;;
7515;SDS011;3799;47.184;8.538;2023-05-07T09:49:38;2.42;;;1.67;;
7515;SDS011;3799;47.184;8.538;2023-05-07T09:52:08;3.83;;;1.27;;
7515;SDS011;3799;47.184;8.538;2023-05-07T09:54:37;3.00;;;1.20;;
7515;SDS011;3799;47.184;8.538;2023-05-07T09:57:05;4.50;;;1.48;;
7515;SDS011;3799;47.184;8.538;2023-05-07T09:59:33;5.22;;;2.03;;
7515;SDS011;3799;47.184;8.538;2023-05-07T10:02:03;2.92;;;1.70;;
7515;SDS011;3799;47.184;8.538;2023-05-07T10:04:31;4.00;;;1.95;;
7515;SDS011;3799;47.184;8.538;2023-05-07T10:06:59;3.50;;;1.33;;
7515;SDS011;3799;47.184;8.538;2023-05-07T10:09:27;3.17;;;1.40;;
7515;SDS011;3799;47.184;8.538;2023-05-07T10:11:55;3.33;;;1.35;;
7515;SDS011;3799;47.184;8.538;2023-05-07T10:14:23;4.05;;;1.75;;
7515;SDS011;3799;47.184;8.538;2023-05-07T10:16:51;2.50;;;1.30;;
7515;SDS011;3799;47.184;8.538;2023-05-07T10:19:20;3.97;;;1.52;;
7515;SDS011;3799;47.184;8.538;2023-05-07T10:22:00;4.38;;;1.80;;
7515;SDS011;3799;47.184;8.538;2023-05-07T10:24:35;3.45;;;1.35;;
7515;SDS011;3799;47.184;8.538;2023-05-07T10:27:10;3.08;;;1.60;;
7515;SDS011;3799;47.184;8.538;2023-05-07T10:32:44;2.85;;;1.45;;
7515;SDS011;3799;47.184;8.538;2023-05-07T10:35:19;2.88;;;1.45;;
7515;SDS011;3799;47.184;8.538;2023-05-07T10:37:49;5.60;;;1.63;;
7515;SDS011;3799;47.184;8.538;2023-05-07T10:40:17;4.65;;;1.67;;
7515;SDS011;3799;47.184;8.538;2023-05-07T10:42:56;5.57;;;1.52;;
7515;SDS011;3799;47.184;8.538;2023-05-07T10:45:28;3.30;;;1.60;;
7515;SDS011;3799;47.184;8.538;2023-05-07T10:48:05;2.47;;;1.63;;
7515;SDS011;3799;47.184;8.538;2023-05-07T10:51:17;3.35;;;2.08;;
7515;SDS011;3799;47.184;8.538;2023-05-07T10:53:46;3.10;;;2.00;;
7515;SDS011;3799;47.184;8.538;2023-05-07T10:58:45;4.10;;;1.98;;
7515;SDS011;3799;47.184;8.538;2023-05-07T11:01:13;3.55;;;1.30;;
7515;SDS011;3799;47.184;8.538;2023-05-07T11:07:09;3.58;;;1.38;;
7515;SDS011;3799;47.184;8.538;2023-05-07T11:15:13;3.60;;;1.92;;
7515;SDS011;3799;47.184;8.538;2023-05-07T11:17:52;4.28;;;1.85;;
7515;SDS011;3799;47.184;8.538;2023-05-07T11:20:21;4.07;;;1.67;;
7515;SDS011;3799;47.184;8.538;2023-05-07T11:26:04;5.38;;;1.25;;
7515;SDS011;3799;47.184;8.538;2023-05-07T11:28:39;2.72;;;1.63;;
7515;SDS011;3799;47.184;8.538;2023-05-07T11:31:09;4.57;;;2.45;;
7515;SDS011;3799;47.184;8.538;2023-05-07T11:33:37;2.50;;;1.52;;
7515;SDS011;3799;47.184;8.538;2023-05-07T11:36:05;2.50;;;1.40;;
7515;SDS011;3799;47.184;8.538;2023-05-07T11:38:35;5.88;;;3.08;;
7515;SDS011;3799;47.184;8.538;2023-05-07T11:41:03;4.15;;;1.60;;
7515;SDS011;3799;47.184;8.538;2023-05-07T11:43:34;3.13;;;1.48;;
7515;SDS011;3799;47.184;8.538;2023-05-07T11:46:07;3.28;;;1.70;;
7515;SDS011;3799;47.184;8.538;2023-05-07T11:48:36;5.70;;;1.60;;
7515;SDS011;3799;47.184;8.538;2023-05-07T11:51:05;6.10;;;1.50;;
7515;SDS011;3799;47.184;8.538;2023-05-07T11:53:36;3.45;;;1.90;;
7515;SDS011;3799;47.184;8.538;2023-05-07T11:58:37;3.67;;;1.40;;
7515;SDS011;3799;47.184;8.538;2023-05-07T12:01:06;4.15;;;2.22;;
7515;SDS011;3799;47.184;8.538;2023-05-07T12:03:36;3.45;;;2.15;;
7515;SDS011;3799;47.184;8.538;2023-05-07T12:06:07;3.38;;;1.20;;
7515;SDS011;3799;47.184;8.538;2023-05-07T12:08:36;2.45;;;1.70;;
7515;SDS011;3799;47.184;8.538;2023-05-07T12:11:15;3.85;;;2.38;;
7515;SDS011;3799;47.184;8.538;2023-05-07T12:13:49;3.55;;;1.60;;
7515;SDS011;3799;47.184;8.538;2023-05-07T12:16:17;3.20;;;1.20;;
7515;SDS011;3799;47.184;8.538;2023-05-07T12:18:46;3.55;;;1.58;;
7515;SDS011;3799;47.184;8.538;2023-05-07T12:21:13;3.55;;;1.60;;
7515;SDS011;3799;47.184;8.538;2023-05-07T12:23:41;2.72;;;1.60;;
7515;SDS011;3799;47.184;8.538;2023-05-07T12:26:09;4.28;;;1.42;;
7515;SDS011;3799;47.184;8.538;2023-05-07T12:28:37;4.55;;;1.73;;
7515;SDS011;3799;47.184;8.538;2023-05-07T12:31:06;2.45;;;1.25;;
7515;SDS011;3799;47.184;8.538;2023-05-07T12:33:34;2.22;;;1.17;;
7515;SDS011;3799;47.184;8.538;2023-05-07T12:36:07;3.05;;;1.77;;
7515;SDS011;3799;47.184;8.538;2023-05-07T12:38:36;5.50;;;1.65;;
7515;SDS011;3799;47.184;8.538;2023-05-07T12:41:08;4.28;;;1.92;;
7515;SDS011;3799;47.184;8.538;2023-05-07T12:43:36;3.55;;;1.33;;
7515;SDS011;3799;47.184;8.538;2023-05-07T12:46:05;2.40;;;1.50;;
7515;SDS011;3799;47.184;8.538;2023-05-07T12:48:33;4.50;;;1.58;;
7515;SDS011;3799;47.184;8.538;2023-05-07T12:51:03;4.50;;;1.95;;
7515;SDS011;3799;47.184;8.538;2023-05-07T12:53:32;3.67;;;1.85;;
7515;SDS011;3799;47.184;8.538;2023-05-07T12:56:00;3.30;;;1.60;;
7515;SDS011;3799;47.184;8.538;2023-05-07T12:58:28;3.47;;;1.75;;
7515;SDS011;3799;47.184;8.538;2023-05-07T13:01:03;5.63;;;2.80;;
7515;SDS011;3799;47.184;8.538;2023-05-07T13:03:33;3.70;;;1.63;;
7515;SDS011;3799;47.184;8.538;2023-05-07T13:06:02;3.95;;;1.67;;
7515;SDS011;3799;47.184;8.538;2023-05-07T13:08:39;4.25;;;1.77;;
7515;SDS011;3799;47.184;8.538;2023-05-07T13:11:08;5.57;;;2.00;;
7515;SDS011;3799;47.184;8.538;2023-05-07T13:13:37;3.80;;;1.92;;
7515;SDS011;3799;47.184;8.538;2023-05-07T13:16:07;4.00;;;1.90;;
7515;SDS011;3799;47.184;8.538;2023-05-07T13:18:36;3.08;;;1.55;;
7515;SDS011;3799;47.184;8.538;2023-05-07T13:21:05;3.85;;;1.67;;
7515;SDS011;3799;47.184;8.538;2023-05-07T13:23:32;3.15;;;1.52;;
7515;SDS011;3799;47.184;8.538;2023-05-07T13:25:59;4.07;;;1.80;;
7515;SDS011;3799;47.184;8.538;2023-05-07T13:28:34;5.03;;;2.15;;
7515;SDS011;3799;47.184;8.538;2023-05-07T13:31:01;3.10;;;1.52;;
7515;SDS011;3799;47.184;8.538;2023-05-07T13:33:29;6.10;;;1.73;;
7515;SDS011;3799;47.184;8.538;2023-05-07T13:35:56;3.38;;;1.60;;
7515;SDS011;3799;47.184;8.538;2023-05-07T13:38:24;3.25;;;1.75;;
7515;SDS011;3799;47.184;8.538;2023-05-07T13:40:51;2.65;;;1.55;;
7515;SDS011;3799;47.184;8.538;2023-05-07T13:43:18;4.60;;;1.70;;
7515;SDS011;3799;47.184;8.538;2023-05-07T13:45:46;3.95;;;1.55;;
7515;SDS011;3799;47.184;8.538;2023-05-07T13:48:14;4.22;;;1.70;;
7515;SDS011;3799;47.184;8.538;2023-05-07T13:50:41;3.70;;;2.10;;
7515;SDS011;3799;47.184;8.538;2023-05-07T13:53:09;2.85;;;1.90;;
7515;SDS011;3799;47.184;8.538;2023-05-07T13:55:36;3.72;;;1.70;;
7515;SDS011;3799;47.184;8.538;2023-05-07T13:58:03;3.70;;;2.25;;
7515;SDS011;3799;47.184;8.538;2023-05-07T14:00:32;3.42;;;1.83;;
7515;SDS011;3799;47.184;8.538;2023-05-07T14:03:00;3.13;;;2.13;;
7515;SDS011;3799;47.184;8.538;2023-05-07T14:05:27;3.35;;;1.85;;
7515;SDS011;3799;47.184;8.538;2023-05-07T14:07:55;6.07;;;1.85;;
7515;SDS011;3799;47.184;8.538;2023-05-07T14:10:24;6.78;;;1.95;;
7515;SDS011;3799;47.184;8.538;2023-05-07T14:12:52;4.70;;;2.28;;
7515;SDS011;3799;47.184;8.538;2023-05-07T14:15:19;4.45;;;1.80;;
7515;SDS011;3799;47.184;8.538;2023-05-07T14:17:47;3.35;;;1.40;;
7515;SDS011;3799;47.184;8.538;2023-05-07T14:20:14;3.67;;;1.92;;
7515;SDS011;3799;47.184;8.538;2023-05-07T14:22:41;6.28;;;1.80;;
7515;SDS011;3799;47.184;8.538;2023-05-07T14:25:09;3.28;;;1.60;;
7515;SDS011;3799;47.184;8.538;2023-05-07T14:27:36;3.20;;;1.48;;
7515;SDS011;3799;47.184;8.538;2023-05-07T14:30:04;2.95;;;1.88;;
7515;SDS011;3799;47.184;8.538;2023-05-07T14:32:32;3.85;;;2.05;;
7515;SDS011;3799;47.184;8.538;2023-05-07T14:35:00;3.97;;;1.55;;
7515;SDS011;3799;47.184;8.538;2023-05-07T14:37:28;3.47;;;1.30;;
7515;SDS011;3799;47.184;8.538;2023-05-07T14:39:55;2.28;;;1.30;;
7515;SDS011;3799;47.184;8.538;2023-05-07T14:42:22;3.55;;;2.25;;
7515;SDS011;3799;47.184;8.538;2023-05-07T14:44:50;3.10;;;1.80;;
7515;SDS011;3799;47.184;8.538;2023-05-07T14:47:17;6.57;;;1.40;;
7515;SDS011;3799;47.184;8.538;2023-05-07T14:49:45;5.15;;;1.48;;
7515;SDS011;3799;47.184;8.538;2023-05-07T14:52:13;2.67;;;1.65;;
7515;SDS011;3799;47.184;8.538;2023-05-07T14:54:41;2.95;;;1.27;;
7515;SDS011;3799;47.184;8.538;2023-05-07T14:57:08;1.80;;;1.00;;
7515;SDS011;3799;47.184;8.538;2023-05-07T14:59:37;2.63;;;1.55;;
7515;SDS011;3799;47.184;8.538;2023-05-07T15:02:05;2.50;;;1.10;;
7515;SDS011;3799;47.184;8.538;2023-05-07T15:04:35;4.47;;;1.05;;
7515;SDS011;3799;47.184;8.538;2023-05-07T15:07:02;2.60;;;1.73;;
7515;SDS011;3799;47.184;8.538;2023-05-07T15:09:44;2.25;;;1.40;;
7515;SDS011;3799;47.184;8.538;2023-05-07T15:12:12;3.08;;;1.75;;
7515;SDS011;3799;47.184;8.538;2023-05-07T15:14:40;3.28;;;1.30;;
7515;SDS011;3799;47.184;8.538;2023-05-07T15:17:08;3.72;;;1.58;;
7515;SDS011;3799;47.184;8.538;2023-05-07T15:19:35;3.75;;;1.70;;
7515;SDS011;3799;47.184;8.538;2023-05-07T15:22:03;2.78;;;1.65;;
7515;SDS011;3799;47.184;8.538;2023-05-07T15:24:30;2.60;;;1.35;;
7515;SDS011;3799;47.184;8.538;2023-05-07T15:26:58;3.55;;;1.88;;
7515;SDS011;3799;47.184;8.538;2023-05-07T15:29:25;2.55;;;1.40;;
7515;SDS011;3799;47.184;8.538;2023-05-07T15:31:53;2.72;;;1.58;;
7515;SDS011;3799;47.184;8.538;2023-05-07T15:34:21;4.13;;;1.70;;
7515;SDS011;3799;47.184;8.538;2023-05-07T15:36:50;6.93;;;4.22;;
7515;SDS011;3799;47.184;8.538;2023-05-07T15:39:18;7.80;;;4.57;;
7515;SDS011;3799;47.184;8.538;2023-05-07T15:41:45;3.30;;;2.10;;
7515;SDS011;3799;47.184;8.538;2023-05-07T15:44:12;4.63;;;2.15;;
7515;SDS011;3799;47.184;8.538;2023-05-07T15:46:40;3.58;;;2.00;;
7515;SDS011;3799;47.184;8.538;2023-05-07T15:49:07;3.20;;;1.52;;
7515;SDS011;3799;47.184;8.538;2023-05-07T15:51:36;3.47;;;1.58;;
7515;SDS011;3799;47.184;8.538;2023-05-07T15:54:03;3.88;;;1.65;;
7515;SDS011;3799;47.184;8.538;2023-05-07T15:56:30;3.83;;;1.95;;
7515;SDS011;3799;47.184;8.538;2023-05-07T15:58:59;2.70;;;1.70;;
7515;SDS011;3799;47.184;8.538;2023-05-07T16:01:27;3.13;;;1.48;;
7515;SDS011;3799;47.184;8.538;2023-05-07T16:03:56;3.40;;;1.70;;
7515;SDS011;3799;47.184;8.538;2023-05-07T16:06:23;3.35;;;1.60;;
7515;SDS011;3799;47.184;8.538;2023-05-07T16:08:51;3.10;;;1.88;;
7515;SDS011;3799;47.184;8.538;2023-05-07T16:11:18;2.40;;;1.42;;
7515;SDS011;3799;47.184;8.538;2023-05-07T16:13:45;3.28;;;1.73;;
7515;SDS011;3799;47.184;8.538;2023-05-07T16:16:12;2.17;;;1.45;;